This is the latest recevied weather packets stored in our database for station/object EA4IAJ-12. If no packets are shown the sender has not sent any weather packets the latest 10 day(s).
| Time | Temp. | Humidity | Pressure | Rain* | Wind** | Luminosity | Snow |
|---|---|---|---|---|---|---|---|
| 1777860930 | 12.22° C | 100% | 996.9 hPa | - | - | - | - |
| 1777860029 | 12.78° C | 100% | 998.2 hPa | - | - | - | - |
| 1777859129 | 13.33° C | 100% | 999.3 hPa | - | - | - | - |
| 1777858228 | 13.33° C | 100% | 999.3 hPa | - | - | - | - |
| 1777857328 | 13.33° C | 100% | 999.4 hPa | - | - | - | - |
| 1777855527 | 13.89° C | 100% | 1000.5 hPa | - | - | - | - |
| 1777854626 | 13.89° C | 100% | 1001.3 hPa | - | - | - | - |
| 1777853725 | 13.89° C | 100% | 1001.9 hPa | - | - | - | - |
| 1777851924 | 14.44° C | 100% | 1004 hPa | - | - | - | - |
| 1777850123 | 15° C | 100% | 1005.9 hPa | - | - | - | - |
| 1777849223 | 15.56° C | 100% | 1006.3 hPa | - | - | - | - |
| 1777848322 | 15.56° C | 100% | 1006.6 hPa | - | - | - | - |
| 1777847422 | 15.56° C | 100% | 1007.4 hPa | - | - | - | - |
| 1777845620 | 15.56° C | 100% | 1006.5 hPa | - | - | - | - |
| 1777844733 | 15.56° C | 100% | 1007.4 hPa | - | - | - | - |
| 1777843832 | 15.56° C | 100% | 1007.1 hPa | - | - | - | - |
| 1777842931 | 15.56° C | 100% | 1007.4 hPa | - | - | - | - |
| 1777842031 | 16.11° C | 100% | 1008.5 hPa | - | - | - | - |
| 1777841130 | 16.11° C | 100% | 1008.5 hPa | - | - | - | - |
| 1777840230 | 16.11° C | 100% | 1009.1 hPa | - | - | - | - |
| 1777839329 | 16.11° C | 100% | 1009.4 hPa | - | - | - | - |
| 1777838429 | 16.11° C | 100% | 1009.8 hPa | - | - | - | - |
| 1777837528 | 16.11° C | 100% | 1009.8 hPa | - | - | - | - |
| 1777836628 | 16.67° C | 100% | 1010.5 hPa | - | - | - | - |
| 1777835727 | 16.67° C | 100% | 1011.8 hPa | - | - | - | - |
* Rain since midnight (hover to see other rain measurements)
** Current wind speed in m/s (hover to see current wind gust speed)